createdAt,value
2022-12-16T00:02:25.661Z,-6.63
2022-12-16T00:04:53.542Z,-6.75
2022-12-16T00:07:21.279Z,-6.88
2022-12-16T00:09:49.148Z,-6.87
2022-12-16T00:12:17.050Z,-6.87
2022-12-16T00:14:44.947Z,-6.84
2022-12-16T00:17:12.791Z,-6.89
2022-12-16T00:19:41.968Z,-6.93
2022-12-16T00:22:09.816Z,-7.01
2022-12-16T00:24:38.015Z,-6.96
2022-12-16T00:27:07.414Z,-6.99
2022-12-16T00:29:36.157Z,-6.90
2022-12-16T00:32:04.171Z,-6.73
2022-12-16T00:34:32.379Z,-6.62
2022-12-16T00:37:01.527Z,-6.48
2022-12-16T00:39:29.324Z,-6.60
2022-12-16T00:41:57.128Z,-6.51
2022-12-16T00:44:24.928Z,-6.44
2022-12-16T00:46:52.664Z,-6.46
2022-12-16T00:49:22.896Z,-6.61
2022-12-16T00:51:50.830Z,-6.80
2022-12-16T00:54:20.020Z,-6.96
2022-12-16T00:56:47.729Z,-6.72
2022-12-16T00:59:15.639Z,-6.90
2022-12-16T01:01:43.707Z,-7.04
2022-12-16T01:04:13.785Z,-6.94
2022-12-16T01:06:41.579Z,-6.75
2022-12-16T01:09:09.404Z,-6.87
2022-12-16T01:11:38.594Z,-6.94
2022-12-16T01:14:06.403Z,-7.10
2022-12-16T01:16:35.060Z,-7.07
2022-12-16T01:19:02.908Z,-7.37
2022-12-16T01:21:31.056Z,-7.13
2022-12-16T01:23:59.521Z,-7.28
2022-12-16T01:26:27.324Z,-7.22
2022-12-16T01:28:56.580Z,-7.36
2022-12-16T01:31:25.219Z,-7.37
2022-12-16T01:33:53.179Z,-7.43
2022-12-16T01:36:21.052Z,-7.46
2022-12-16T01:38:49.719Z,-7.56
2022-12-16T01:41:19.236Z,-7.50
2022-12-16T01:43:47.720Z,-7.26
2022-12-16T01:46:24.292Z,-7.28
2022-12-16T01:48:54.929Z,-7.40
2022-12-16T01:51:27.525Z,-7.52
2022-12-16T01:54:00.092Z,-7.63
2022-12-16T01:56:29.572Z,-7.53
2022-12-16T01:58:58.297Z,-7.59
2022-12-16T02:01:27.751Z,-7.61
2022-12-16T02:04:01.731Z,-7.43
2022-12-16T02:06:29.762Z,-7.39
2022-12-16T02:09:01.500Z,-7.39
2022-12-16T02:11:56.917Z,-7.26
2022-12-16T02:14:45.601Z,-7.36
2022-12-16T02:17:22.382Z,-7.35
2022-12-16T02:20:21.069Z,-7.21
2022-12-16T02:23:06.289Z,-7.13
2022-12-16T02:26:03.819Z,-7.30
2022-12-16T02:28:55.087Z,-7.42
2022-12-16T02:31:34.980Z,-7.44
2022-12-16T02:34:19.024Z,-7.63
2022-12-16T02:36:57.968Z,-7.69
2022-12-16T02:39:31.263Z,-7.66
2022-12-16T02:42:04.287Z,-7.65
2022-12-16T02:44:41.278Z,-7.56
2022-12-16T02:47:13.159Z,-7.49
2022-12-16T02:49:48.809Z,-7.62
2022-12-16T02:52:19.813Z,-7.61
2022-12-16T02:54:49.360Z,-7.51
2022-12-16T02:57:41.361Z,-7.34
2022-12-16T03:00:12.880Z,-7.54
2022-12-16T03:02:50.967Z,-7.58
2022-12-16T03:05:24.453Z,-7.60
2022-12-16T03:07:55.306Z,-7.60
2022-12-16T03:10:28.327Z,-7.58
2022-12-16T03:12:59.449Z,-7.55
2022-12-16T03:15:42.185Z,-7.57
2022-12-16T03:18:13.890Z,-7.47
2022-12-16T03:20:46.590Z,-7.42
2022-12-16T03:23:18.248Z,-7.56
2022-12-16T03:25:49.510Z,-7.49
2022-12-16T03:28:29.744Z,-7.50
2022-12-16T03:31:06.594Z,-7.50
2022-12-16T03:33:42.017Z,-7.46
2022-12-16T03:36:13.573Z,-7.46
2022-12-16T03:38:42.575Z,-7.54
2022-12-16T03:41:10.688Z,-7.54
2022-12-16T03:43:39.185Z,-7.52
2022-12-16T03:46:09.206Z,-7.43
2022-12-16T03:48:46.675Z,-7.33
2022-12-16T03:51:14.752Z,-7.26
2022-12-16T03:53:42.960Z,-7.22
2022-12-16T03:56:11.463Z,-7.15
2022-12-16T03:58:40.281Z,-7.06
2022-12-16T04:01:09.439Z,-7.02
2022-12-16T04:03:39.091Z,-7.09
2022-12-16T04:06:07.358Z,-7.03
2022-12-16T04:08:35.188Z,-6.97
2022-12-16T04:11:20.336Z,-6.97
2022-12-16T04:14:05.635Z,-6.96
2022-12-16T04:16:51.137Z,-6.96
2022-12-16T04:19:42.788Z,-7.06
2022-12-16T04:22:33.743Z,-7.01
2022-12-16T04:25:05.916Z,-7.14
2022-12-16T04:27:33.634Z,-7.18
2022-12-16T04:30:18.836Z,-7.20
2022-12-16T04:33:04.695Z,-7.15
2022-12-16T04:36:06.251Z,-7.26
2022-12-16T04:38:51.754Z,-7.14
2022-12-16T04:41:37.407Z,-7.29
2022-12-16T04:44:23.617Z,-7.23
2022-12-16T04:47:08.937Z,-7.14
2022-12-16T04:49:54.431Z,-7.18
2022-12-16T04:52:41.578Z,-7.36
2022-12-16T04:55:27.978Z,-7.42
2022-12-16T04:58:14.838Z,-7.32
2022-12-16T05:01:00.665Z,-7.24
2022-12-16T05:03:46.718Z,-7.38
2022-12-16T05:06:32.746Z,-7.42
2022-12-16T05:09:20.353Z,-7.49
2022-12-16T05:12:05.847Z,-7.49
2022-12-16T05:14:51.122Z,-7.32
2022-12-16T05:17:37.035Z,-7.38
2022-12-16T05:20:23.165Z,-7.50
2022-12-16T05:23:23.116Z,-7.62
2022-12-16T05:26:08.979Z,-7.55
2022-12-16T05:28:54.291Z,-7.51
2022-12-16T05:31:39.714Z,-7.46
2022-12-16T05:34:26.698Z,-7.43
2022-12-16T05:37:11.966Z,-7.52
2022-12-16T05:39:57.311Z,-7.31
2022-12-16T05:42:43.969Z,-7.21
2022-12-16T05:45:29.321Z,-7.24
2022-12-16T05:48:21.398Z,-7.25
2022-12-16T05:51:06.790Z,-7.37
2022-12-16T05:53:52.174Z,-7.26
2022-12-16T05:56:45.526Z,-7.15
2022-12-16T05:59:32.231Z,-7.15
2022-12-16T06:02:14.053Z,-6.96
2022-12-16T06:04:59.558Z,-7.05
2022-12-16T06:07:44.955Z,-6.92
2022-12-16T06:10:30.109Z,-6.91
2022-12-16T06:13:30.390Z,-7.00
2022-12-16T06:16:17.257Z,-6.95
2022-12-16T06:19:02.448Z,-6.82
2022-12-16T06:21:47.751Z,-6.79
2022-12-16T06:24:33.083Z,-6.73
2022-12-16T06:27:18.565Z,-6.74
2022-12-16T06:30:03.566Z,-6.80
2022-12-16T06:32:50.285Z,-6.72
2022-12-16T06:35:35.451Z,-6.69
2022-12-16T06:38:20.666Z,-6.85
2022-12-16T06:41:05.947Z,-6.88
2022-12-16T06:43:51.217Z,-6.82
2022-12-16T06:46:36.603Z,-6.83
2022-12-16T06:49:23.668Z,-6.81
2022-12-16T06:52:09.092Z,-6.89
2022-12-16T06:54:54.437Z,-6.74
2022-12-16T06:57:39.589Z,-6.71
2022-12-16T07:00:26.065Z,-6.69
2022-12-16T07:03:17.224Z,-6.77
2022-12-16T07:06:05.596Z,-6.75
2022-12-16T07:08:59.461Z,-6.75
2022-12-16T07:11:44.848Z,-6.85
2022-12-16T07:14:30.197Z,-6.94
2022-12-16T07:17:17.560Z,-6.93
2022-12-16T07:20:03.066Z,-7.04
2022-12-16T07:23:00.988Z,-6.88
2022-12-16T07:25:48.380Z,-6.89
2022-12-16T07:28:34.340Z,-6.83
2022-12-16T07:31:19.846Z,-6.82
2022-12-16T07:34:05.581Z,-6.92
2022-12-16T07:36:50.803Z,-6.79
2022-12-16T07:39:37.772Z,-6.77
2022-12-16T07:42:25.773Z,-6.80
2022-12-16T07:45:11.257Z,-6.71
2022-12-16T07:47:57.141Z,-6.76
2022-12-16T07:50:42.599Z,-6.54
2022-12-16T07:53:31.394Z,-6.55
2022-12-16T07:56:18.742Z,-6.37
2022-12-16T07:59:04.063Z,-6.36
2022-12-16T08:01:58.540Z,-6.26
2022-12-16T08:04:44.377Z,-6.26
2022-12-16T08:07:29.842Z,-6.49
2022-12-16T08:10:15.356Z,-6.47
2022-12-16T08:13:07.377Z,-6.40
2022-12-16T08:15:52.992Z,-6.46
2022-12-16T08:18:38.484Z,-6.36
2022-12-16T08:21:23.849Z,-6.32
2022-12-16T08:24:09.297Z,-6.41
2022-12-16T08:26:55.083Z,-6.36
2022-12-16T08:29:44.863Z,-6.16
2022-12-16T08:32:31.199Z,-6.13
2022-12-16T08:35:16.569Z,-6.01
2022-12-16T08:38:07.620Z,-5.92
2022-12-16T08:40:57.731Z,-5.92
2022-12-16T08:43:43.109Z,-5.78
2022-12-16T08:46:29.676Z,-5.66
2022-12-16T08:52:00.803Z,-5.94
2022-12-16T08:54:46.216Z,-5.90
2022-12-16T08:57:31.773Z,-5.98
2022-12-16T09:00:17.165Z,-5.88
2022-12-16T09:03:04.382Z,-5.79
2022-12-16T09:05:50.197Z,-5.59
2022-12-16T09:08:36.607Z,-5.53
2022-12-16T09:11:21.903Z,-5.34
2022-12-16T09:14:07.106Z,-5.32
2022-12-16T09:16:55.037Z,-5.06
2022-12-16T09:19:42.145Z,-4.99
2022-12-16T09:22:30.598Z,-5.08
2022-12-16T09:25:16.212Z,-4.94
2022-12-16T09:28:01.507Z,-4.84
2022-12-16T09:30:49.918Z,-4.68
2022-12-16T09:33:36.718Z,-4.75
2022-12-16T09:36:30.137Z,-4.60
2022-12-16T09:39:11.980Z,-4.50
2022-12-16T09:42:01.979Z,-4.33
2022-12-16T09:45:04.957Z,-4.30
2022-12-16T09:47:57.782Z,-4.33
2022-12-16T09:50:49.004Z,-4.09
2022-12-16T09:53:39.140Z,-3.98
2022-12-16T09:56:32.642Z,-3.90
2022-12-16T09:59:21.530Z,-3.95
2022-12-16T10:02:09.301Z,-3.94
2022-12-16T10:04:54.577Z,-3.94
2022-12-16T10:07:50.328Z,-3.69
2022-12-16T10:10:48.029Z,-3.44
2022-12-16T10:13:41.525Z,-3.47
2022-12-16T10:16:36.387Z,-3.31
2022-12-16T10:19:35.926Z,-3.37
2022-12-16T10:22:31.236Z,-3.35
2022-12-16T10:25:25.186Z,-3.47
2022-12-16T10:28:21.271Z,-3.44
2022-12-16T10:31:06.707Z,-3.30
2022-12-16T10:33:52.214Z,-3.33
2022-12-16T10:36:41.208Z,-2.99
2022-12-16T10:39:42.542Z,-2.89
2022-12-16T10:42:39.129Z,-2.93
2022-12-16T10:45:35.841Z,-2.85
2022-12-16T10:48:21.693Z,-2.68
2022-12-16T10:51:07.019Z,-2.71
2022-12-16T10:53:52.845Z,-2.59
2022-12-16T10:56:55.819Z,-2.47
2022-12-16T10:59:54.177Z,-2.30
2022-12-16T11:02:44.289Z,-2.26
2022-12-16T11:05:48.196Z,-2.11
2022-12-16T11:08:45.372Z,-1.99
2022-12-16T11:11:40.652Z,-1.91
2022-12-16T11:14:39.325Z,-1.95
2022-12-16T11:17:34.192Z,-1.95
2022-12-16T11:20:37.579Z,-1.84
2022-12-16T11:23:47.233Z,-1.83
2022-12-16T11:26:37.219Z,-1.80
2022-12-16T11:29:32.481Z,-1.75
2022-12-16T11:32:23.943Z,-1.80
2022-12-16T11:35:13.214Z,-1.68
2022-12-16T11:38:07.627Z,-1.78
2022-12-16T11:41:00.432Z,-1.75
2022-12-16T11:43:48.801Z,-1.70
2022-12-16T11:46:40.205Z,-1.82
2022-12-16T11:49:32.939Z,-1.73
2022-12-16T11:52:36.443Z,-1.60
2022-12-16T11:56:04.531Z,-1.63
2022-12-16T11:58:50.148Z,-1.73
2022-12-16T12:01:45.580Z,-1.59
2022-12-16T12:04:32.273Z,-1.60
2022-12-16T12:07:44.970Z,-1.51
2022-12-16T12:10:49.714Z,-1.55
2022-12-16T12:13:56.393Z,-1.45
2022-12-16T12:16:50.033Z,-1.44
2022-12-16T12:19:39.288Z,-1.46
2022-12-16T12:22:36.350Z,-1.43
2022-12-16T12:25:28.837Z,-1.36
2022-12-16T12:28:23.747Z,-1.34
2022-12-16T12:31:23.133Z,-1.28
2022-12-16T12:34:19.238Z,-1.22
2022-12-16T12:37:12.205Z,-1.11
2022-12-16T12:40:04.995Z,-1.15
2022-12-16T12:42:56.730Z,-1.10
2022-12-16T12:46:03.206Z,-1.12
2022-12-16T12:48:57.790Z,-1.01
2022-12-16T12:51:49.697Z,-1.01
2022-12-16T12:54:44.176Z,-1.01
2022-12-16T12:57:33.790Z,-1.12
2022-12-16T13:00:22.096Z,-1.12
2022-12-16T13:03:20.911Z,-1.25
2022-12-16T13:06:07.081Z,-1.16
2022-12-16T13:09:15.581Z,-1.12
2022-12-16T13:12:34.641Z,-1.09
2022-12-16T13:15:24.476Z,-1.13
2022-12-16T13:18:49.718Z,-1.14
2022-12-16T13:22:07.039Z,-1.15
2022-12-16T13:25:05.025Z,-1.20
2022-12-16T13:28:12.178Z,-1.21
2022-12-16T13:30:59.876Z,-1.12
2022-12-16T13:33:47.856Z,-1.21
2022-12-16T13:36:37.268Z,-1.18
2022-12-16T13:39:41.176Z,-1.20
2022-12-16T13:43:05.087Z,-1.16
2022-12-16T13:45:54.293Z,-1.23
2022-12-16T13:48:56.518Z,-1.20
2022-12-16T13:52:24.200Z,-1.25
2022-12-16T13:55:32.369Z,-1.24
2022-12-16T13:58:23.781Z,-1.28
2022-12-16T14:01:23.193Z,-1.35
2022-12-16T14:04:10.974Z,-1.31
2022-12-16T14:07:02.136Z,-1.26
2022-12-16T14:09:52.490Z,-1.27
2022-12-16T14:13:03.848Z,-1.33
2022-12-16T14:15:56.567Z,-1.38
2022-12-16T14:18:52.729Z,-1.36
2022-12-16T14:21:45.698Z,-1.40
2022-12-16T14:24:46.317Z,-1.37
2022-12-16T14:27:37.713Z,-1.38
2022-12-16T14:30:35.691Z,-1.38
2022-12-16T14:33:35.189Z,-1.31
2022-12-16T14:36:20.655Z,-1.31
2022-12-16T14:39:08.091Z,-1.35
2022-12-16T14:41:53.684Z,-1.38
2022-12-16T14:44:41.331Z,-1.51
2022-12-16T14:47:35.865Z,-1.43
2022-12-16T14:50:21.854Z,-1.44
2022-12-16T14:53:07.265Z,-1.34
2022-12-16T14:55:53.838Z,-1.30
2022-12-16T14:58:41.701Z,-1.36
2022-12-16T15:01:44.545Z,-1.39
2022-12-16T15:04:40.175Z,-1.45
2022-12-16T15:07:31.532Z,-1.45
2022-12-16T15:10:18.442Z,-1.50
2022-12-16T15:13:06.917Z,-1.50
2022-12-16T15:15:55.926Z,-1.50
2022-12-16T15:19:02.614Z,-1.57
2022-12-16T15:22:03.651Z,-1.56
2022-12-16T15:25:04.172Z,-1.55
2022-12-16T15:27:54.761Z,-1.61
2022-12-16T15:30:56.856Z,-1.61
2022-12-16T15:33:45.140Z,-1.63
2022-12-16T15:36:42.437Z,-1.68
2022-12-16T15:39:36.254Z,-1.76
2022-12-16T15:42:22.238Z,-1.84
2022-12-16T15:45:09.741Z,-1.78
2022-12-16T15:47:57.403Z,-1.83
2022-12-16T15:50:45.503Z,-1.82
2022-12-16T15:53:36.298Z,-1.92
2022-12-16T15:56:23.827Z,-1.84
2022-12-16T15:59:09.524Z,-1.88
2022-12-16T16:02:05.099Z,-2.00
2022-12-16T16:04:50.825Z,-1.96
2022-12-16T16:07:38.633Z,-1.93
2022-12-16T16:10:34.772Z,-1.79
2022-12-16T16:13:21.733Z,-1.93
2022-12-16T16:16:10.613Z,-1.89
2022-12-16T16:18:59.001Z,-1.81
2022-12-16T16:21:44.654Z,-1.79
2022-12-16T16:24:31.407Z,-1.75
2022-12-16T16:27:19.765Z,-1.80
2022-12-16T16:30:08.350Z,-1.89
2022-12-16T16:32:53.719Z,-1.83
2022-12-16T16:35:39.352Z,-1.78
2022-12-16T16:38:24.678Z,-1.76
2022-12-16T16:41:20.687Z,-1.76
2022-12-16T16:44:06.187Z,-1.89
2022-12-16T16:46:55.492Z,-1.95
2022-12-16T16:49:47.129Z,-1.92
2022-12-16T16:52:34.303Z,-1.92
2022-12-16T16:55:19.590Z,-1.97
2022-12-16T16:58:04.999Z,-2.05
2022-12-16T17:00:50.701Z,-1.99
2022-12-16T17:03:38.393Z,-1.91
2022-12-16T17:06:24.735Z,-2.00
2022-12-16T17:09:10.130Z,-2.08
2022-12-16T17:12:11.674Z,-2.04
2022-12-16T17:14:53.517Z,-2.02
2022-12-16T17:17:38.618Z,-2.13
2022-12-16T17:20:36.679Z,-2.12
2022-12-16T17:23:22.012Z,-2.14
2022-12-16T17:26:08.566Z,-2.02
2022-12-16T17:28:53.921Z,-2.09
2022-12-16T17:31:39.588Z,-2.06
2022-12-16T17:34:25.202Z,-2.07
2022-12-16T17:37:11.540Z,-2.09
2022-12-16T17:40:11.566Z,-2.09
2022-12-16T17:42:56.867Z,-2.05
2022-12-16T17:45:42.351Z,-2.13
2022-12-16T17:48:27.711Z,-2.10
2022-12-16T17:51:13.100Z,-2.17
2022-12-16T17:54:02.115Z,-2.20
2022-12-16T17:56:51.307Z,-2.14
2022-12-16T17:59:36.300Z,-2.18
2022-12-16T18:02:21.819Z,-2.27
2022-12-16T18:05:07.250Z,-2.18
2022-12-16T18:07:53.074Z,-2.29
2022-12-16T18:10:43.196Z,-2.24
2022-12-16T18:13:28.550Z,-2.19
2022-12-16T18:16:14.112Z,-2.17
2022-12-16T18:18:59.620Z,-2.23
2022-12-16T18:21:44.988Z,-2.17
2022-12-16T18:24:31.729Z,-2.19
2022-12-16T18:27:19.570Z,-2.16
2022-12-16T18:30:04.797Z,-2.06
2022-12-16T18:32:51.410Z,-2.07
2022-12-16T18:35:36.814Z,-2.03
2022-12-16T18:38:22.435Z,-2.05
2022-12-16T18:41:09.968Z,-2.04
2022-12-16T18:43:57.379Z,-2.02
2022-12-16T18:46:42.405Z,-2.09
2022-12-16T18:49:42.452Z,-2.21
2022-12-16T18:52:27.651Z,-2.21
2022-12-16T18:55:15.629Z,-2.23
2022-12-16T18:58:02.343Z,-2.17
2022-12-16T19:00:49.292Z,-2.10
2022-12-16T19:03:34.670Z,-2.17
2022-12-16T19:06:19.757Z,-2.15
2022-12-16T19:09:13.424Z,-2.14
2022-12-16T19:11:58.795Z,-2.13
2022-12-16T19:14:50.518Z,-2.09
2022-12-16T19:17:37.613Z,-2.08
2022-12-16T19:20:25.475Z,-2.16
2022-12-16T19:23:14.033Z,-2.12
2022-12-16T19:25:59.674Z,-2.14
2022-12-16T19:28:45.107Z,-2.03
2022-12-16T19:31:32.816Z,-2.14
2022-12-16T19:34:19.827Z,-2.15
2022-12-16T19:37:06.333Z,-2.18
2022-12-16T19:39:51.958Z,-2.18
2022-12-16T19:42:36.546Z,-2.24
2022-12-16T19:45:23.859Z,-2.21
2022-12-16T19:48:19.047Z,-2.17
2022-12-16T19:51:05.903Z,-2.06
2022-12-16T19:53:51.264Z,-1.97
2022-12-16T19:56:40.071Z,-1.96
2022-12-16T19:59:33.957Z,-1.92
2022-12-16T20:02:18.825Z,-1.89
2022-12-16T20:05:05.734Z,-1.91
2022-12-16T20:07:52.939Z,-2.03
2022-12-16T20:10:41.741Z,-2.11
2022-12-16T20:13:30.083Z,-2.00
2022-12-16T20:16:25.313Z,-2.03
2022-12-16T20:19:10.666Z,-2.04
2022-12-16T20:21:57.529Z,-1.98
2022-12-16T20:24:45.939Z,-1.95
2022-12-16T20:27:31.904Z,-1.91
2022-12-16T20:30:17.247Z,-1.92
2022-12-16T20:33:09.289Z,-1.85
2022-12-16T20:36:06.162Z,-1.91
2022-12-16T20:38:53.431Z,-1.86
2022-12-16T20:41:44.380Z,-1.92
2022-12-16T20:44:29.883Z,-1.87
2022-12-16T20:47:18.411Z,-1.86
2022-12-16T20:50:04.388Z,-1.88
2022-12-16T20:52:49.678Z,-1.89
2022-12-16T20:55:35.004Z,-1.80
2022-12-16T20:58:18.416Z,-1.82
2022-12-16T21:01:03.761Z,-1.84
2022-12-16T21:03:49.287Z,-1.83
2022-12-16T21:06:34.693Z,-1.78
2022-12-16T21:09:23.204Z,-1.81
2022-12-16T21:12:08.956Z,-1.82
2022-12-16T21:14:55.635Z,-1.81
2022-12-16T21:17:44.889Z,-1.86
2022-12-16T21:20:30.302Z,-1.92
2022-12-16T21:23:19.172Z,-1.84
2022-12-16T21:26:04.579Z,-1.80
2022-12-16T21:28:50.036Z,-1.97
2022-12-16T21:31:37.103Z,-2.05
2022-12-16T21:34:23.094Z,-1.91
2022-12-16T21:37:09.357Z,-1.93
2022-12-16T21:39:54.810Z,-1.83
2022-12-16T21:42:44.421Z,-1.89
2022-12-16T21:45:30.183Z,-1.89
2022-12-16T21:48:16.851Z,-1.79
2022-12-16T21:51:02.456Z,-1.74
2022-12-16T21:53:48.833Z,-1.81
2022-12-16T21:56:57.472Z,-1.75
2022-12-16T21:59:48.532Z,-1.83
2022-12-16T22:02:46.188Z,-1.78
2022-12-16T22:05:33.106Z,-1.83
2022-12-16T22:08:27.395Z,-1.83
2022-12-16T22:11:12.820Z,-1.77
2022-12-16T22:13:58.156Z,-1.92
2022-12-16T22:16:45.922Z,-1.86
2022-12-16T22:19:31.165Z,-1.87
2022-12-16T22:22:18.041Z,-1.84
2022-12-16T22:25:03.663Z,-1.82
2022-12-16T22:27:49.215Z,-1.82
2022-12-16T22:30:35.679Z,-1.81
2022-12-16T22:33:20.972Z,-1.86
2022-12-16T22:36:08.710Z,-1.99
2022-12-16T22:38:56.489Z,-1.89
2022-12-16T22:41:41.691Z,-1.87
2022-12-16T22:44:27.141Z,-1.86
2022-12-16T22:47:17.916Z,-1.82
2022-12-16T22:50:03.379Z,-1.79
2022-12-16T22:52:48.882Z,-1.71
2022-12-16T22:55:34.519Z,-1.76
2022-12-16T22:58:25.653Z,-1.87
2022-12-16T23:01:12.388Z,-1.74
2022-12-16T23:04:06.249Z,-1.75
2022-12-16T23:06:51.997Z,-1.70
2022-12-16T23:09:37.639Z,-1.74
2022-12-16T23:12:24.866Z,-1.74
2022-12-16T23:15:15.262Z,-1.83
2022-12-16T23:18:00.721Z,-1.81
2022-12-16T23:20:46.603Z,-1.75
2022-12-16T23:23:31.927Z,-1.71
2022-12-16T23:26:19.413Z,-1.74
2022-12-16T23:29:09.605Z,-1.70
2022-12-16T23:31:56.597Z,-1.67
2022-12-16T23:34:56.648Z,-1.66
2022-12-16T23:37:42.114Z,-1.64
2022-12-16T23:40:28.611Z,-1.67
2022-12-16T23:43:13.985Z,-1.65
2022-12-16T23:46:01.780Z,-1.72
2022-12-16T23:48:47.049Z,-1.73
2022-12-16T23:51:32.609Z,-1.74
2022-12-16T23:54:17.528Z,-1.69
2022-12-16T23:57:03.080Z,-1.59
2022-12-16T23:59:48.268Z,-1.67
